createdAt,value
2018-11-02T00:00:07.002Z,11.30
2018-11-02T00:02:39.521Z,11.20
2018-11-02T00:05:10.426Z,11.10
2018-11-02T00:07:42.256Z,11.10
2018-11-02T00:10:13.686Z,11.00
2018-11-02T00:12:44.556Z,10.90
2018-11-02T00:15:15.207Z,10.90
2018-11-02T00:17:47.507Z,10.80
2018-11-02T00:20:20.017Z,10.80
2018-11-02T00:22:50.996Z,10.70
2018-11-02T00:25:22.275Z,10.80
2018-11-02T00:27:54.021Z,10.70
2018-11-02T00:30:25.376Z,10.70
2018-11-02T00:32:58.486Z,10.70
2018-11-02T00:35:29.476Z,10.70
2018-11-02T00:38:01.068Z,10.60
2018-11-02T00:40:32.180Z,10.50
2018-11-02T00:43:02.997Z,10.50
2018-11-02T00:45:33.666Z,10.50
2018-11-02T00:48:07.657Z,10.50
2018-11-02T00:50:40.856Z,10.50
2018-11-02T00:53:12.545Z,10.50
2018-11-02T00:55:44.297Z,10.50
2018-11-02T00:58:16.223Z,10.40
2018-11-02T01:00:47.536Z,10.40
2018-11-02T01:03:18.559Z,10.40
2018-11-02T01:05:50.266Z,10.30
2018-11-02T01:08:23.286Z,10.40
2018-11-02T01:10:55.926Z,10.40
2018-11-02T01:13:27.540Z,10.40
2018-11-02T01:15:58.955Z,10.30
2018-11-02T01:18:29.817Z,10.30
2018-11-02T01:21:04.346Z,10.20
2018-11-02T01:23:36.026Z,10.20
2018-11-02T01:26:07.736Z,10.20
2018-11-02T01:28:42.777Z,10.10
2018-11-02T01:31:13.966Z,10.00
2018-11-02T01:33:45.486Z,10.00
2018-11-02T01:36:18.106Z,10.00
2018-11-02T01:38:49.267Z,10.00
2018-11-02T01:41:20.816Z,10.00
2018-11-02T01:44:01.324Z,9.90
2018-11-02T01:46:33.679Z,9.90
2018-11-02T01:49:05.769Z,9.90
2018-11-02T01:51:37.859Z,9.80
2018-11-02T01:54:09.522Z,9.80
2018-11-02T01:56:44.555Z,9.80
2018-11-02T01:59:16.125Z,9.70
2018-11-02T02:01:49.284Z,9.70
2018-11-02T02:04:21.565Z,9.70
2018-11-02T02:06:53.835Z,9.70
2018-11-02T02:09:26.155Z,9.70
2018-11-02T02:11:59.005Z,9.80
2018-11-02T02:14:30.385Z,9.80
2018-11-02T02:17:02.494Z,9.80
2018-11-02T02:19:34.114Z,9.80
2018-11-02T02:22:09.398Z,9.90
2018-11-02T02:24:40.433Z,9.90
2018-11-02T02:27:12.114Z,10.00
2018-11-02T02:29:52.045Z,9.90
2018-11-02T02:32:23.915Z,9.90
2018-11-02T02:34:55.584Z,9.90
2018-11-02T02:37:26.993Z,9.80
2018-11-02T02:40:01.105Z,9.70
2018-11-02T02:42:35.034Z,9.70
2018-11-02T02:45:12.033Z,9.70
2018-11-02T02:47:44.723Z,9.60
2018-11-02T02:50:15.982Z,9.60
2018-11-02T02:52:56.092Z,9.60
2018-11-02T02:55:27.905Z,9.60
2018-11-02T02:58:02.763Z,9.60
2018-11-02T03:00:38.354Z,9.60
2018-11-02T03:03:10.485Z,9.50
2018-11-02T03:05:42.244Z,9.50
2018-11-02T03:08:14.225Z,9.40
2018-11-02T03:10:45.905Z,9.40
2018-11-02T03:13:19.336Z,9.30
2018-11-02T03:15:51.025Z,9.30
2018-11-02T03:18:22.936Z,9.30
2018-11-02T03:20:54.633Z,9.30
2018-11-02T03:23:25.987Z,9.30
2018-11-02T03:25:57.645Z,9.30
2018-11-02T03:28:29.465Z,9.30
2018-11-02T03:31:01.645Z,9.40
2018-11-02T03:33:33.564Z,9.50
2018-11-02T03:36:05.184Z,9.50
2018-11-02T03:38:37.095Z,9.50
2018-11-02T03:41:09.605Z,9.40
2018-11-02T03:43:41.664Z,9.40
2018-11-02T03:46:13.294Z,9.30
2018-11-02T03:48:45.562Z,9.30
2018-11-02T03:51:25.323Z,9.20
2018-11-02T03:53:57.171Z,9.20
2018-11-02T03:56:32.237Z,9.20
2018-11-02T03:59:09.137Z,9.20
2018-11-02T04:01:40.476Z,9.30
2018-11-02T04:04:20.267Z,9.30
2018-11-02T04:06:52.053Z,9.30
2018-11-02T04:09:23.921Z,9.30
2018-11-02T04:12:00.566Z,9.40
2018-11-02T04:14:32.757Z,9.40
2018-11-02T04:17:04.508Z,9.40
2018-11-02T04:19:36.377Z,9.40
2018-11-02T04:22:11.314Z,9.40
2018-11-02T04:24:42.952Z,9.50
2018-11-02T04:27:14.633Z,9.60
2018-11-02T04:29:50.681Z,9.70
2018-11-02T04:32:26.695Z,9.70
2018-11-02T04:34:58.224Z,9.80
2018-11-02T04:37:29.705Z,9.80
2018-11-02T04:40:02.439Z,9.80
2018-11-02T04:42:34.144Z,9.80
2018-11-02T04:45:06.095Z,9.70
2018-11-02T04:47:38.715Z,9.60
2018-11-02T04:50:11.786Z,9.60
2018-11-02T04:52:43.392Z,9.60
2018-11-02T04:55:14.981Z,9.60
2018-11-02T04:57:46.975Z,9.70
2018-11-02T05:00:18.765Z,9.60
2018-11-02T05:02:52.639Z,9.60
2018-11-02T05:05:24.994Z,9.60
2018-11-02T05:07:57.187Z,9.70
2018-11-02T05:10:28.795Z,9.70
2018-11-02T05:13:00.455Z,9.60
2018-11-02T05:15:34.094Z,9.60
2018-11-02T05:18:05.980Z,9.50
2018-11-02T05:20:37.554Z,9.60
2018-11-02T05:23:09.641Z,9.50
2018-11-02T05:25:41.316Z,9.50
2018-11-02T05:28:13.265Z,9.50
2018-11-02T05:30:46.078Z,9.50
2018-11-02T05:33:18.145Z,9.50
2018-11-02T05:35:50.155Z,9.50
2018-11-02T05:38:23.574Z,9.40
2018-11-02T05:40:55.516Z,9.40
2018-11-02T05:43:28.025Z,9.30
2018-11-02T05:45:59.605Z,9.40
2018-11-02T05:48:31.445Z,9.30
2018-11-02T05:51:03.175Z,9.40
2018-11-02T05:53:34.497Z,9.40
2018-11-02T05:56:06.031Z,9.40
2018-11-02T05:58:37.455Z,9.50
2018-11-02T06:01:09.335Z,9.40
2018-11-02T06:03:41.145Z,9.40
2018-11-02T06:06:20.607Z,9.40
2018-11-02T06:08:52.088Z,9.30
2018-11-02T06:11:32.099Z,9.40
2018-11-02T06:14:03.680Z,9.30
2018-11-02T06:16:34.461Z,9.30
2018-11-02T06:19:06.169Z,9.30
2018-11-02T06:21:37.529Z,9.40
2018-11-02T06:24:09.388Z,9.50
2018-11-02T06:26:41.199Z,9.60
2018-11-02T06:29:17.627Z,9.60
2018-11-02T06:31:56.164Z,9.50
2018-11-02T06:34:31.193Z,9.40
2018-11-02T06:37:02.801Z,9.40
2018-11-02T06:39:34.684Z,9.40
2018-11-02T06:42:09.902Z,9.40
2018-11-02T06:44:45.572Z,9.50
2018-11-02T06:47:25.742Z,9.50
2018-11-02T06:49:57.239Z,9.60
2018-11-02T06:52:30.669Z,9.60
2018-11-02T06:55:02.909Z,9.70
2018-11-02T06:57:37.128Z,9.70
2018-11-02T07:00:12.534Z,9.70
2018-11-02T07:02:45.368Z,9.70
2018-11-02T07:05:17.440Z,9.80
2018-11-02T07:07:49.486Z,9.80
2018-11-02T07:10:25.364Z,9.90
2018-11-02T07:13:00.408Z,9.90
2018-11-02T07:15:33.447Z,9.90
2018-11-02T07:18:05.177Z,9.90
2018-11-02T07:20:36.769Z,10.00
2018-11-02T07:23:09.596Z,10.00
2018-11-02T07:25:42.303Z,10.00
2018-11-02T07:28:14.348Z,9.90
2018-11-02T07:30:46.221Z,10.00
2018-11-02T07:33:18.390Z,10.10
2018-11-02T07:35:50.740Z,10.10
2018-11-02T07:38:23.601Z,10.20
2018-11-02T07:40:57.638Z,10.20
2018-11-02T07:43:30.630Z,10.30
2018-11-02T07:46:02.068Z,10.30
2018-11-02T07:48:38.948Z,10.40
2018-11-02T07:51:11.208Z,10.40
2018-11-02T07:53:43.218Z,10.50
2018-11-02T07:56:19.098Z,10.60
2018-11-02T07:58:50.689Z,10.60
2018-11-02T08:01:22.615Z,10.60
2018-11-02T08:03:54.827Z,10.60
2018-11-02T08:06:27.536Z,10.60
2018-11-02T08:08:59.476Z,10.60
2018-11-02T08:11:32.070Z,10.50
2018-11-02T08:14:03.666Z,10.50
2018-11-02T08:16:35.875Z,10.60
2018-11-02T08:19:08.037Z,10.60
2018-11-02T08:21:41.515Z,10.60
2018-11-02T08:24:13.865Z,10.60
2018-11-02T08:26:45.445Z,10.60
2018-11-02T08:29:20.668Z,10.60
2018-11-02T08:31:52.584Z,10.60
2018-11-02T08:34:24.196Z,10.60
2018-11-02T08:36:56.537Z,10.60
2018-11-02T08:39:28.945Z,10.60
2018-11-02T08:42:00.654Z,10.60
2018-11-02T08:44:33.717Z,10.70
2018-11-02T08:47:05.286Z,10.60
2018-11-02T08:49:37.185Z,10.70
2018-11-02T08:52:09.208Z,10.70
2018-11-02T08:54:44.472Z,10.70
2018-11-02T08:57:19.115Z,10.80
2018-11-02T08:59:51.636Z,10.80
2018-11-02T09:02:23.715Z,10.80
2018-11-02T09:04:55.848Z,10.90
2018-11-02T09:07:28.184Z,11.00
2018-11-02T09:10:00.076Z,11.00
2018-11-02T09:12:33.038Z,11.00
2018-11-02T09:15:05.297Z,11.10
2018-11-02T09:17:37.516Z,11.10
2018-11-02T09:20:09.455Z,11.10
2018-11-02T09:22:42.354Z,11.10
2018-11-02T09:25:14.625Z,11.20
2018-11-02T09:27:50.733Z,11.20
2018-11-02T09:30:22.640Z,11.20
2018-11-02T09:32:55.661Z,11.10
2018-11-02T09:35:27.763Z,11.10
2018-11-02T09:38:00.661Z,11.20
2018-11-02T09:40:33.229Z,11.20
2018-11-02T09:43:05.189Z,11.20
2018-11-02T09:45:37.075Z,11.10
2018-11-02T09:48:08.620Z,11.10
2018-11-02T09:50:40.885Z,11.20
2018-11-02T09:53:12.946Z,11.20
2018-11-02T09:55:45.915Z,11.20
2018-11-02T09:58:17.645Z,11.20
2018-11-02T10:00:49.547Z,11.30
2018-11-02T10:03:21.375Z,11.30
2018-11-02T10:05:57.511Z,11.30
2018-11-02T10:08:29.639Z,11.30
2018-11-02T10:11:05.379Z,11.30
2018-11-02T10:13:39.647Z,11.40
2018-11-02T10:16:11.778Z,11.40
2018-11-02T10:18:47.418Z,11.40
2018-11-02T10:21:18.148Z,11.50
2018-11-02T10:24:11.978Z,11.50
2018-11-02T10:26:42.879Z,11.50
2018-11-02T10:29:22.624Z,11.50
2018-11-02T10:32:02.381Z,11.40
2018-11-02T10:38:01.987Z,11.40
2018-11-02T10:40:35.151Z,11.40
2018-11-02T10:43:09.258Z,11.40
2018-11-02T10:45:46.108Z,11.40
2018-11-02T10:48:17.487Z,11.40
2018-11-02T10:51:09.407Z,11.40
2018-11-02T10:53:54.357Z,11.40
2018-11-02T10:56:25.106Z,11.40
2018-11-02T10:58:55.957Z,11.40
2018-11-02T11:02:09.201Z,11.40
2018-11-02T11:05:02.589Z,11.40
2018-11-02T11:07:32.986Z,11.40
2018-11-02T11:10:04.479Z,11.40
2018-11-02T11:13:10.004Z,11.50
2018-11-02T11:15:40.316Z,11.50
2018-11-02T11:18:10.987Z,11.50
2018-11-02T11:21:28.116Z,11.50
2018-11-02T11:23:59.275Z,11.50
2018-11-02T11:26:29.887Z,11.50
2018-11-02T11:29:00.130Z,11.60
2018-11-02T11:32:11.016Z,11.60
2018-11-02T11:34:41.327Z,11.60
2018-11-02T11:37:12.366Z,11.70
2018-11-02T11:39:44.024Z,11.70
2018-11-02T11:42:56.807Z,11.70
2018-11-02T11:45:28.725Z,11.70
2018-11-02T11:48:00.783Z,11.70
2018-11-02T11:50:39.797Z,11.80
2018-11-02T11:53:24.870Z,11.80
2018-11-02T11:56:04.289Z,11.80
2018-11-02T11:58:34.938Z,11.80
2018-11-02T12:01:31.067Z,11.90
2018-11-02T12:04:01.598Z,11.90
2018-11-02T12:06:32.439Z,11.90
2018-11-02T12:09:04.190Z,11.90
2018-11-02T12:12:06.586Z,11.90
2018-11-02T12:14:37.786Z,12.00
2018-11-02T12:17:09.018Z,12.00
2018-11-02T12:19:40.357Z,12.00
2018-11-02T12:22:11.527Z,12.10
2018-11-02T12:24:47.057Z,12.10
2018-11-02T12:27:19.030Z,12.10
2018-11-02T12:29:59.056Z,12.10
2018-11-02T12:32:47.046Z,12.10
2018-11-02T12:35:18.713Z,12.00
2018-11-02T12:37:49.616Z,12.00
2018-11-02T12:40:33.468Z,12.00
2018-11-02T12:43:05.051Z,12.00
2018-11-02T12:45:35.328Z,12.00
2018-11-02T12:48:07.147Z,12.00
2018-11-02T12:50:40.066Z,12.00
2018-11-02T12:53:10.510Z,12.00
2018-11-02T12:55:41.376Z,12.00
2018-11-02T12:58:11.967Z,12.00
2018-11-02T13:00:43.277Z,12.00
2018-11-02T13:03:15.417Z,12.00
2018-11-02T13:05:55.023Z,12.00
2018-11-02T13:08:26.002Z,12.00
2018-11-02T13:10:58.271Z,12.00
2018-11-02T13:13:31.522Z,11.90
2018-11-02T13:16:02.838Z,11.90
2018-11-02T13:18:42.524Z,11.90
2018-11-02T13:21:21.593Z,11.90
2018-11-02T13:24:00.443Z,11.90
2018-11-02T13:26:31.911Z,11.90
2018-11-02T13:29:11.442Z,11.90
2018-11-02T13:31:51.134Z,11.90
2018-11-02T13:34:23.464Z,11.90
2018-11-02T13:36:53.663Z,11.90
2018-11-02T13:39:25.200Z,11.90
2018-11-02T13:41:56.549Z,11.90
2018-11-02T13:44:28.359Z,11.90
2018-11-02T13:47:00.211Z,11.90
2018-11-02T13:49:31.479Z,11.90
2018-11-02T13:52:02.330Z,11.90
2018-11-02T13:54:33.930Z,11.90
2018-11-02T13:57:05.051Z,11.90
2018-11-02T13:59:36.576Z,11.90
2018-11-02T14:02:08.901Z,11.90
2018-11-02T14:04:41.142Z,11.90
2018-11-02T14:07:11.711Z,11.90
2018-11-02T14:09:42.890Z,11.90
2018-11-02T14:12:13.180Z,11.90
2018-11-02T14:14:45.271Z,11.90
2018-11-02T14:17:17.000Z,11.90
2018-11-02T14:19:56.847Z,11.90
2018-11-02T14:22:36.662Z,11.90
2018-11-02T14:25:09.388Z,11.90
2018-11-02T14:27:48.541Z,11.90
2018-11-02T14:30:27.681Z,11.90
2018-11-02T14:32:59.463Z,11.90
2018-11-02T14:35:30.803Z,11.90
2018-11-02T14:38:09.669Z,11.80
2018-11-02T14:40:49.511Z,11.80
2018-11-02T14:43:28.936Z,11.70
2018-11-02T14:46:01.566Z,11.70
2018-11-02T14:48:32.197Z,11.70
2018-11-02T14:51:11.887Z,11.60
2018-11-02T14:53:47.483Z,11.60
2018-11-02T14:56:19.108Z,11.60
2018-11-02T14:58:50.848Z,11.60
2018-11-02T15:01:30.648Z,11.60
2018-11-02T15:04:01.307Z,11.60
2018-11-02T15:06:32.986Z,11.60
2018-11-02T15:09:04.767Z,11.50
2018-11-02T15:11:36.862Z,11.50
2018-11-02T15:14:12.657Z,11.50
2018-11-02T15:16:47.666Z,11.50
2018-11-02T15:19:23.507Z,11.40
2018-11-02T15:22:02.472Z,11.40
2018-11-02T15:24:34.242Z,11.40
2018-11-02T15:27:06.193Z,11.50
2018-11-02T15:29:45.557Z,11.40
2018-11-02T15:32:22.599Z,11.40
2018-11-02T15:35:01.090Z,11.50
2018-11-02T15:37:37.958Z,11.50
2018-11-02T15:40:10.969Z,11.50
2018-11-02T15:42:45.798Z,11.50
2018-11-02T15:45:23.697Z,11.40
2018-11-02T15:47:56.237Z,11.40
2018-11-02T15:50:28.398Z,11.40
2018-11-02T15:52:59.956Z,11.40
2018-11-02T15:55:31.287Z,11.30
2018-11-02T15:58:01.936Z,11.30
2018-11-02T16:00:38.201Z,11.30
2018-11-02T16:03:10.946Z,11.40
2018-11-02T16:05:43.737Z,11.30
2018-11-02T16:08:21.243Z,11.40
2018-11-02T16:10:53.271Z,11.40
2018-11-02T16:13:29.936Z,11.40
2018-11-02T16:16:01.298Z,11.40
2018-11-02T16:18:32.780Z,11.30
2018-11-02T16:21:06.747Z,11.30
2018-11-02T16:23:39.317Z,11.30
2018-11-02T16:26:11.228Z,11.20
2018-11-02T16:28:43.109Z,11.20
2018-11-02T16:31:21.005Z,11.20
2018-11-02T16:33:53.487Z,11.10
2018-11-02T16:36:26.084Z,11.10
2018-11-02T16:38:58.604Z,11.10
2018-11-02T16:41:38.307Z,11.10
2018-11-02T16:44:10.408Z,11.10
2018-11-02T16:46:42.128Z,11.10
2018-11-02T16:49:13.488Z,11.00
2018-11-02T16:51:44.530Z,11.00
2018-11-02T16:54:15.929Z,11.00
2018-11-02T16:56:47.359Z,11.00
2018-11-02T16:59:18.278Z,11.00
2018-11-02T17:01:58.778Z,10.90
2018-11-02T17:04:29.908Z,10.90
2018-11-02T17:07:01.518Z,10.90
2018-11-02T17:09:33.227Z,10.90
2018-11-02T17:12:13.039Z,10.90
2018-11-02T17:14:43.818Z,10.90
2018-11-02T17:17:23.893Z,10.90
2018-11-02T17:19:55.553Z,10.90
2018-11-02T17:22:35.354Z,10.90
2018-11-02T17:25:07.422Z,10.90
2018-11-02T17:27:47.475Z,10.90
2018-11-02T17:30:19.726Z,10.90
2018-11-02T17:32:52.042Z,10.80
2018-11-02T17:35:25.254Z,10.80
2018-11-02T17:37:55.862Z,10.80
2018-11-02T17:40:26.393Z,10.80
2018-11-02T17:42:58.953Z,10.80
2018-11-02T17:45:30.742Z,10.80
2018-11-02T17:48:02.392Z,10.80
2018-11-02T17:50:33.785Z,10.80
2018-11-02T17:53:04.213Z,10.70
2018-11-02T17:55:35.634Z,10.80
2018-11-02T17:58:05.934Z,10.80
2018-11-02T18:00:38.702Z,10.80
2018-11-02T18:03:09.922Z,10.80
2018-11-02T18:05:41.291Z,10.80
2018-11-02T18:08:20.614Z,10.80
2018-11-02T18:10:53.026Z,10.80
2018-11-02T18:13:32.650Z,10.70
2018-11-02T18:16:12.593Z,10.70
2018-11-02T18:18:52.253Z,10.70
2018-11-02T18:21:23.939Z,10.70
2018-11-02T18:23:58.129Z,10.70
2018-11-02T18:26:29.869Z,10.70
2018-11-02T18:29:00.971Z,10.70
2018-11-02T18:31:32.970Z,10.70
2018-11-02T18:34:07.340Z,10.60
2018-11-02T18:36:38.480Z,10.60
2018-11-02T18:39:15.479Z,10.60
2018-11-02T18:41:46.632Z,10.60
2018-11-02T18:44:17.189Z,10.60
2018-11-02T18:46:47.809Z,10.60
2018-11-02T18:49:19.710Z,10.60
2018-11-02T18:51:50.668Z,10.50
2018-11-02T18:54:21.441Z,10.60
2018-11-02T18:56:52.809Z,10.60
2018-11-02T18:59:23.069Z,10.60
2018-11-02T19:01:57.180Z,10.50
2018-11-02T19:04:28.469Z,10.50
2018-11-02T19:06:59.619Z,10.50
2018-11-02T19:09:30.000Z,10.50
2018-11-02T19:12:01.622Z,10.50
2018-11-02T19:14:33.968Z,10.50
2018-11-02T19:17:05.138Z,10.50
2018-11-02T19:19:36.927Z,10.50
2018-11-02T19:22:08.659Z,10.60
2018-11-02T19:24:40.389Z,10.60
2018-11-02T19:27:16.880Z,10.70
2018-11-02T19:29:48.237Z,10.70
2018-11-02T19:32:27.987Z,10.70
2018-11-02T19:34:59.202Z,10.70
2018-11-02T19:37:34.473Z,10.70
2018-11-02T19:40:07.618Z,10.70
2018-11-02T19:42:39.025Z,10.70
2018-11-02T19:45:11.772Z,10.70
2018-11-02T19:47:57.998Z,10.70
2018-11-02T19:50:29.538Z,10.70
2018-11-02T19:53:00.208Z,10.70
2018-11-02T19:55:31.901Z,10.70
2018-11-02T19:58:03.157Z,10.70
2018-11-02T20:00:34.556Z,10.70
2018-11-02T20:03:05.360Z,10.70
2018-11-02T20:05:37.026Z,10.70
2018-11-02T20:08:08.637Z,10.60
2018-11-02T20:10:41.906Z,10.50
2018-11-02T20:13:40.386Z,10.50
2018-11-02T20:16:12.138Z,10.50
2018-11-02T20:18:42.787Z,10.50
2018-11-02T20:21:13.558Z,10.50
2018-11-02T20:23:44.229Z,10.50
2018-11-02T20:26:29.279Z,10.50
2018-11-02T20:29:01.377Z,10.50
2018-11-02T20:31:32.227Z,10.40
2018-11-02T20:34:03.408Z,10.40
2018-11-02T20:36:35.818Z,10.40
2018-11-02T20:39:08.695Z,10.40
2018-11-02T20:41:40.538Z,10.50
2018-11-02T20:44:12.037Z,10.40
2018-11-02T20:46:43.406Z,10.40
2018-11-02T20:49:14.573Z,10.40
2018-11-02T20:51:46.178Z,10.50
2018-11-02T20:54:19.510Z,10.50
2018-11-02T20:56:51.051Z,10.50
2018-11-02T20:59:21.926Z,10.50
2018-11-02T21:01:52.377Z,10.50
2018-11-02T21:04:24.030Z,10.50
2018-11-02T21:06:58.178Z,10.50
2018-11-02T21:09:29.941Z,10.50
2018-11-02T21:12:10.868Z,10.50
2018-11-02T21:14:41.624Z,10.40
2018-11-02T21:17:13.383Z,10.50
2018-11-02T21:19:53.108Z,10.50
2018-11-02T21:22:23.759Z,10.50
2018-11-02T21:25:39.765Z,10.50
2018-11-02T21:28:31.416Z,10.50
2018-11-02T21:31:23.127Z,10.50
2018-11-02T21:36:53.716Z,10.60
2018-11-02T21:39:44.636Z,10.60
2018-11-02T21:42:43.587Z,10.60
2018-11-02T21:45:34.706Z,10.60
2018-11-02T21:49:43.226Z,10.60
2018-11-02T21:55:42.538Z,10.60
2018-11-02T21:58:41.911Z,10.70
2018-11-02T22:01:26.928Z,10.70
2018-11-02T22:04:10.387Z,10.70
2018-11-02T22:06:48.738Z,10.70
2018-11-02T22:09:19.798Z,10.70
2018-11-02T22:11:50.737Z,10.70
2018-11-02T22:14:22.647Z,10.70
2018-11-02T22:16:54.296Z,10.60
2018-11-02T22:19:25.864Z,10.60
2018-11-02T22:21:57.866Z,10.60
2018-11-02T22:24:29.757Z,10.50
2018-11-02T22:27:00.959Z,10.50
2018-11-02T22:29:40.748Z,10.50
2018-11-02T22:32:12.771Z,10.50
2018-11-02T22:34:52.510Z,10.50
2018-11-02T22:37:33.466Z,10.50
2018-11-02T22:40:06.165Z,10.40
2018-11-02T22:42:38.123Z,10.40
2018-11-02T22:45:12.142Z,10.40
2018-11-02T22:47:49.177Z,10.40
2018-11-02T22:50:21.104Z,10.40
2018-11-02T22:52:52.954Z,10.50
2018-11-02T22:55:29.953Z,10.40
2018-11-02T22:58:01.722Z,10.40
2018-11-02T23:00:34.562Z,10.50
2018-11-02T23:03:11.561Z,10.50
2018-11-02T23:05:51.391Z,10.50
2018-11-02T23:08:23.160Z,10.40
2018-11-02T23:10:55.350Z,10.40
2018-11-02T23:13:31.500Z,10.40
2018-11-02T23:16:11.087Z,10.40
2018-11-02T23:18:42.247Z,10.40
2018-11-02T23:21:13.998Z,10.40
2018-11-02T23:23:46.067Z,10.40
2018-11-02T23:26:20.275Z,10.40
2018-11-02T23:28:51.827Z,10.40
2018-11-02T23:31:23.457Z,10.40
2018-11-02T23:33:54.455Z,10.40
2018-11-02T23:36:26.075Z,10.40
2018-11-02T23:38:57.166Z,10.40
2018-11-02T23:41:29.045Z,10.40
2018-11-02T23:44:08.366Z,10.40
2018-11-02T23:46:38.896Z,10.40
2018-11-02T23:49:10.366Z,10.40
2018-11-02T23:51:50.737Z,10.40
2018-11-02T23:54:23.098Z,10.40
2018-11-02T23:56:54.448Z,10.40
2018-11-02T23:59:29.918Z,10.30
